Time;durP1;ratioP1;P1;durP2;ratioP2;P2;SDS_P1;SDS_P2;PMS_P1;PMS_P2;Temp;Humidity;BMP_temperature;BMP_pressure;BME280_temperature;BME280_humidity;BME280_pressure;Samples;Min_cycle;Max_cycle;Signal;HPM_P1;HPM_P2
2020/12/21 00:01:20;;;;;;;1.45;0.70;;;4.90;99.90;;;;;;4401266;32;20062;-58
2020/12/21 00:03:45;;;;;;;0.68;0.62;;;4.90;99.90;;;;;;4400828;32;20109;-58
2020/12/21 00:06:13;;;;;;;0.70;0.70;;;5.00;99.90;;;;;;4387225;32;20126;-55
2020/12/21 00:08:39;;;;;;;0.55;0.55;;;4.90;99.90;;;;;;4401898;32;20133;-57
2020/12/21 00:11:05;;;;;;;3.33;2.15;;;5.00;99.90;;;;;;4393710;32;20074;-59
2020/12/21 00:13:30;;;;;;;1.05;0.70;;;5.00;99.90;;;;;;4384976;32;20079;-57
2020/12/21 00:15:56;;;;;;;1.48;0.65;;;5.10;99.90;;;;;;4384905;32;20066;-53
2020/12/21 00:18:21;;;;;;;2.45;1.17;;;5.00;99.90;;;;;;4395158;32;20070;-55
2020/12/21 00:20:47;;;;;;;0.85;0.85;;;5.00;99.90;;;;;;4400318;32;20078;-54
2020/12/21 00:23:12;;;;;;;0.62;0.62;;;5.00;99.90;;;;;;4401190;32;20101;-56
2020/12/21 00:25:38;;;;;;;0.68;0.50;;;5.00;99.90;;;;;;4401071;32;20123;-56
2020/12/21 00:28:03;;;;;;;0.47;0.47;;;5.00;99.90;;;;;;4401146;32;20057;-59
2020/12/21 00:30:29;;;;;;;1.90;1.35;;;5.00;99.90;;;;;;4400141;32;20058;-57
2020/12/21 00:32:54;;;;;;;0.75;0.75;;;5.00;99.90;;;;;;4401291;32;20486;-57
2020/12/21 00:35:20;;;;;;;3.92;0.40;;;5.00;99.90;;;;;;4388176;32;20058;-57
2020/12/21 00:37:45;;;;;;;0.30;0.30;;;5.10;99.90;;;;;;4400836;32;20082;-58
2020/12/21 00:40:10;;;;;;;1.30;1.00;;;5.10;99.90;;;;;;4400907;32;20062;-58
2020/12/21 00:42:36;;;;;;;0.60;0.60;;;5.10;99.90;;;;;;4399534;32;20086;-58
2020/12/21 00:45:03;;;;;;;0.52;0.52;;;5.00;99.90;;;;;;4400828;32;20096;-58
2020/12/21 00:47:32;;;;;;;1.37;0.82;;;5.10;99.90;;;;;;4400307;32;20083;-58
2020/12/21 00:49:57;;;;;;;1.65;0.98;;;5.00;99.90;;;;;;4401331;32;20082;-59
2020/12/21 00:52:23;;;;;;;0.60;0.60;;;5.00;99.90;;;;;;4400722;32;20539;-57
2020/12/21 00:54:48;;;;;;;0.77;0.77;;;5.10;99.90;;;;;;4400347;32;20121;-58
2020/12/21 00:57:14;;;;;;;1.75;0.98;;;5.20;99.90;;;;;;4400483;32;20162;-55
2020/12/21 00:59:39;;;;;;;1.48;1.15;;;5.10;99.90;;;;;;4400324;32;20058;-54
2020/12/21 01:02:05;;;;;;;0.40;0.40;;;5.10;99.90;;;;;;4400784;32;20121;-58
2020/12/21 01:04:31;;;;;;;2.30;1.00;;;5.10;99.90;;;;;;4400100;32;20075;-57
2020/12/21 01:06:56;;;;;;;2.08;0.65;;;5.00;99.90;;;;;;4400435;32;20425;-57
2020/12/21 01:09:22;;;;;;;0.50;0.50;;;5.00;99.90;;;;;;4400102;32;20062;-57
2020/12/21 01:11:47;;;;;;;2.28;1.62;;;5.00;99.90;;;;;;4387488;32;20071;-56
2020/12/21 01:14:13;;;;;;;1.33;1.20;;;5.10;99.90;;;;;;4386097;32;20402;-56
2020/12/21 01:16:39;;;;;;;5.20;1.05;;;5.10;99.90;;;;;;4385276;32;20058;-57
2020/12/21 01:19:04;;;;;;;0.95;0.88;;;5.10;99.90;;;;;;4399943;32;20078;-57
2020/12/21 01:21:31;;;;;;;0.40;0.40;;;5.10;99.90;;;;;;4400711;32;20113;-58
2020/12/21 01:23:58;;;;;;;1.27;1.17;;;5.20;99.90;;;;;;4399745;32;20082;-57
2020/12/21 01:26:26;;;;;;;2.67;0.95;;;5.20;99.90;;;;;;4399683;32;20070;-58
2020/12/21 01:28:51;;;;;;;0.62;0.62;;;5.20;99.90;;;;;;4399942;32;20069;-58
2020/12/21 01:31:18;;;;;;;2.20;1.12;;;5.30;99.90;;;;;;4399464;32;20074;-58
2020/12/21 01:33:44;;;;;;;0.88;0.57;;;5.30;99.90;;;;;;4399408;32;20074;-57
2020/12/21 01:36:10;;;;;;;0.60;0.60;;;5.30;99.90;;;;;;4399088;32;20077;-56
2020/12/21 01:38:36;;;;;;;2.40;1.17;;;5.40;99.90;;;;;;4400199;32;20058;-52
2020/12/21 01:41:01;;;;;;;2.85;1.27;;;5.40;99.90;;;;;;4401187;32;20550;-54
2020/12/21 01:43:27;;;;;;;0.80;0.80;;;5.50;99.90;;;;;;4400358;32;20078;-57
2020/12/21 01:45:53;;;;;;;0.80;0.80;;;5.50;99.90;;;;;;4400091;32;20069;-53
2020/12/21 01:48:20;;;;;;;1.55;0.77;;;5.50;99.90;;;;;;4400213;32;20385;-55
2020/12/21 01:50:45;;;;;;;1.50;1.12;;;5.50;99.90;;;;;;4401198;32;20062;-57
2020/12/21 01:53:11;;;;;;;1.12;1.02;;;5.50;99.90;;;;;;4399746;32;20074;-56
2020/12/21 01:55:40;;;;;;;1.12;1.02;;;5.50;99.90;;;;;;4400021;32;20113;-56
2020/12/21 01:58:06;;;;;;;14.80;2.40;;;5.40;99.90;;;;;;4400292;32;20053;-57
2020/12/21 02:00:32;;;;;;;0.55;0.55;;;5.30;99.90;;;;;;4400072;32;20492;-57
2020/12/21 02:02:58;;;;;;;1.15;1.05;;;5.40;99.90;;;;;;4399378;32;20134;-54
2020/12/21 02:05:24;;;;;;;1.40;0.70;;;5.40;99.90;;;;;;4400084;32;20125;-57
2020/12/21 02:07:49;;;;;;;1.37;0.90;;;5.50;99.90;;;;;;4399446;32;20110;-57
2020/12/21 02:10:15;;;;;;;0.50;0.50;;;5.60;99.90;;;;;;4397274;32;20125;-55
2020/12/21 02:12:40;;;;;;;0.80;0.80;;;5.60;99.90;;;;;;4384348;32;20054;-55
2020/12/21 02:15:06;;;;;;;0.82;0.82;;;5.50;99.90;;;;;;4385197;32;20145;-57
2020/12/21 02:17:31;;;;;;;4.65;0.70;;;5.60;99.90;;;;;;4390003;32;20058;-57
2020/12/21 02:19:57;;;;;;;0.65;0.65;;;5.60;99.90;;;;;;4400318;32;20520;-57
2020/12/21 02:22:24;;;;;;;0.35;0.35;;;5.50;99.90;;;;;;4399519;32;20062;-56
2020/12/21 02:24:49;;;;;;;0.60;0.57;;;5.50;99.90;;;;;;4398779;32;20082;-54
2020/12/21 02:27:15;;;;;;;1.25;0.57;;;5.30;99.90;;;;;;4398676;32;20069;-58
2020/12/21 02:29:40;;;;;;;6.72;1.60;;;5.30;99.90;;;;;;4400059;32;20074;-58
2020/12/21 02:32:06;;;;;;;0.75;0.68;;;5.40;99.90;;;;;;4399971;32;20070;-58
2020/12/21 02:34:31;;;;;;;1.00;0.85;;;5.40;99.90;;;;;;4400101;32;20070;-57
2020/12/21 02:36:57;;;;;;;0.70;0.70;;;5.30;99.90;;;;;;4399835;32;20078;-55
2020/12/21 02:39:23;;;;;;;1.33;1.15;;;5.30;99.90;;;;;;4400224;32;20071;-56
2020/12/21 02:41:49;;;;;;;1.08;0.98;;;5.40;99.90;;;;;;4399630;32;20054;-58
2020/12/21 02:44:15;;;;;;;1.45;0.73;;;5.50;99.90;;;;;;4399809;32;20128;-53
2020/12/21 02:46:43;;;;;;;1.20;1.08;;;5.40;99.90;;;;;;4399026;32;20475;-59
2020/12/21 02:49:09;;;;;;;0.52;0.52;;;5.50;99.90;;;;;;4400274;32;20062;-59
2020/12/21 02:51:34;;;;;;;1.12;0.62;;;5.50;99.90;;;;;;4399782;32;20050;-58
2020/12/21 02:54:00;;;;;;;0.85;0.85;;;5.50;99.90;;;;;;4398880;32;20066;-57
2020/12/21 02:56:25;;;;;;;0.40;0.40;;;5.40;99.90;;;;;;4399438;32;20058;-55
2020/12/21 02:58:50;;;;;;;0.40;0.40;;;5.40;99.90;;;;;;4399903;32;20074;-54
2020/12/21 03:01:16;;;;;;;2.75;1.00;;;5.40;99.90;;;;;;4399645;32;20552;-55
2020/12/21 03:03:41;;;;;;;0.75;0.75;;;5.40;99.90;;;;;;4398440;32;20062;-57
2020/12/21 03:06:07;;;;;;;0.80;0.60;;;5.40;99.90;;;;;;4398790;32;20114;-57
2020/12/21 03:08:33;;;;;;;0.73;0.73;;;5.50;99.90;;;;;;4386037;32;20055;-55
2020/12/21 03:10:58;;;;;;;2.37;1.20;;;5.60;99.90;;;;;;4392161;32;20082;-58
2020/12/21 03:13:23;;;;;;;0.37;0.37;;;5.60;99.90;;;;;;4383861;32;20417;-56
2020/12/21 03:15:49;;;;;;;0.95;0.82;;;5.60;99.90;;;;;;4384856;32;20054;-55
2020/12/21 03:18:14;;;;;;;0.30;0.30;;;5.50;99.90;;;;;;4393122;32;20079;-57
2020/12/21 03:20:40;;;;;;;0.80;0.80;;;5.50;99.90;;;;;;4398610;32;20066;-53
2020/12/21 03:23:05;;;;;;;0.60;0.60;;;5.50;99.90;;;;;;4398607;32;20082;-59
2020/12/21 03:25:31;;;;;;;0.60;0.60;;;5.60;99.90;;;;;;4398238;32;20128;-59
2020/12/21 03:27:56;;;;;;;0.60;0.60;;;5.60;99.90;;;;;;4399217;32;20070;-59
2020/12/21 03:30:22;;;;;;;0.93;0.73;;;5.60;99.90;;;;;;4400166;32;20532;-58
2020/12/21 03:32:47;;;;;;;3.30;2.00;;;5.50;99.90;;;;;;4399729;32;20381;-58
2020/12/21 03:35:13;;;;;;;0.52;0.52;;;5.60;99.90;;;;;;4398683;32;20087;-57
2020/12/21 03:37:38;;;;;;;0.40;0.40;;;5.50;99.90;;;;;;4399346;32;20515;-58
2020/12/21 03:40:05;;;;;;;0.70;0.70;;;5.40;99.90;;;;;;4399619;32;20110;-53
2020/12/21 03:42:31;;;;;;;0.40;0.40;;;5.40;99.90;;;;;;4398078;32;20133;-53
2020/12/21 03:44:57;;;;;;;0.35;0.35;;;5.50;99.90;;;;;;4398686;32;20125;-57
2020/12/21 03:47:22;;;;;;;1.95;1.02;;;5.40;99.90;;;;;;4399180;32;20159;-57
2020/12/21 03:49:48;;;;;;;4.07;0.70;;;5.50;99.90;;;;;;4397599;32;20070;-58
2020/12/21 03:52:13;;;;;;;0.62;0.62;;;5.40;99.90;;;;;;4398567;32;20121;-57
2020/12/21 03:54:39;;;;;;;0.75;0.75;;;5.40;99.90;;;;;;4398438;32;20069;-53
2020/12/21 03:57:04;;;;;;;0.50;0.50;;;5.50;99.90;;;;;;4397521;32;20063;-57
2020/12/21 03:59:30;;;;;;;0.70;0.70;;;5.60;99.90;;;;;;4398579;32;20426;-57
2020/12/21 04:01:56;;;;;;;0.65;0.65;;;5.60;99.90;;;;;;4397528;32;20070;-59
2020/12/21 04:04:21;;;;;;;1.33;1.00;;;5.50;99.90;;;;;;4397821;32;20471;-59
2020/12/21 04:06:46;;;;;;;0.95;0.77;;;5.60;99.90;;;;;;4386168;32;20071;-58
2020/12/21 04:09:12;;;;;;;0.65;0.65;;;5.60;99.90;;;;;;4382936;32;20501;-58
2020/12/21 04:11:37;;;;;;;2.53;1.77;;;5.50;99.90;;;;;;4394574;32;20100;-56
2020/12/21 04:14:03;;;;;;;0.80;0.80;;;5.50;99.90;;;;;;4398956;32;20222;-57
2020/12/21 04:16:28;;;;;;;0.70;0.70;;;5.50;99.90;;;;;;4397972;32;20563;-55
2020/12/21 04:18:54;;;;;;;0.73;0.65;;;5.50;99.90;;;;;;4386015;32;20126;-53
2020/12/21 04:21:19;;;;;;;1.05;0.85;;;5.50;99.90;;;;;;4384103;32;20061;-55
2020/12/21 04:23:45;;;;;;;0.95;0.80;;;5.40;99.90;;;;;;4385703;32;20455;-57
2020/12/21 04:26:10;;;;;;;0.50;0.50;;;5.30;99.90;;;;;;4385320;32;20062;-57
2020/12/21 04:28:36;;;;;;;1.15;1.08;;;5.30;99.90;;;;;;4386430;32;20078;-56
2020/12/21 04:31:03;;;;;;;1.35;0.98;;;5.40;99.90;;;;;;4386578;32;20082;-57
2020/12/21 04:33:29;;;;;;;0.65;0.65;;;5.40;99.90;;;;;;4384975;32;20118;-57
2020/12/21 04:35:54;;;;;;;0.85;0.68;;;5.50;99.90;;;;;;4385182;32;20063;-55
2020/12/21 04:38:20;;;;;;;0.70;0.70;;;5.50;99.90;;;;;;4385470;32;20062;-59
2020/12/21 04:40:50;;;;;;;1.00;0.90;;;5.40;99.90;;;;;;4386112;32;20508;-59
2020/12/21 04:43:16;;;;;;;0.70;0.70;;;5.40;99.90;;;;;;4384240;32;20067;-58
2020/12/21 04:45:43;;;;;;;2.05;0.98;;;5.40;99.90;;;;;;4385201;32;20176;-56
2020/12/21 04:48:13;;;;;;;1.08;1.00;;;5.40;99.90;;;;;;4384605;32;20047;-56
2020/12/21 04:50:38;;;;;;;5.37;2.62;;;5.30;99.90;;;;;;4386085;32;20546;-58
2020/12/21 04:53:07;;;;;;;2.55;1.10;;;5.30;99.90;;;;;;4385198;32;20054;-58
2020/12/21 04:55:33;;;;;;;0.40;0.40;;;5.30;99.90;;;;;;4383907;32;20551;-59
2020/12/21 04:58:00;;;;;;;0.47;0.47;;;5.30;99.90;;;;;;4384830;32;20066;-54
2020/12/21 05:00:27;;;;;;;0.65;0.65;;;5.30;99.90;;;;;;4385171;32;20556;-55
2020/12/21 05:02:53;;;;;;;0.75;0.75;;;5.20;99.90;;;;;;4384443;32;20057;-54
2020/12/21 05:05:36;;;;;;;0.65;0.65;;;5.20;99.90;;;;;;4390091;32;20077;-53
2020/12/21 05:08:20;;;;;;;0.82;0.75;;;5.20;99.90;;;;;;4398987;32;20066;-53
2020/12/21 05:10:58;;;;;;;3.58;1.15;;;5.30;99.90;;;;;;4400018;32;20082;-57
2020/12/21 05:13:23;;;;;;;1.95;0.85;;;5.20;99.90;;;;;;4386495;32;20530;-55
2020/12/21 05:15:51;;;;;;;0.55;0.55;;;5.30;99.90;;;;;;4398664;32;20058;-54
2020/12/21 05:18:16;;;;;;;2.15;0.82;;;5.30;99.90;;;;;;4390909;32;20487;-55
2020/12/21 05:20:42;;;;;;;4.72;1.27;;;5.20;99.90;;;;;;4384831;32;20066;-56
2020/12/21 05:23:16;;;;;;;1.25;0.82;;;5.30;99.90;;;;;;4384935;32;20456;-57
2020/12/21 05:25:43;;;;;;;0.65;0.65;;;5.30;99.90;;;;;;4384408;32;20075;-58
2020/12/21 05:28:10;;;;;;;0.40;0.40;;;5.30;99.90;;;;;;4384111;32;20079;-58
2020/12/21 05:30:36;;;;;;;1.17;0.60;;;5.10;99.90;;;;;;4384668;32;20075;-57
2020/12/21 05:33:02;;;;;;;0.62;0.62;;;5.10;99.90;;;;;;4383163;32;20058;-57
2020/12/21 05:35:29;;;;;;;0.47;0.47;;;5.10;99.90;;;;;;4383643;32;20065;-59
2020/12/21 05:37:55;;;;;;;0.88;0.60;;;5.10;99.90;;;;;;4383689;32;20481;-59
2020/12/21 05:40:25;;;;;;;0.40;0.40;;;5.10;99.90;;;;;;4386039;32;20114;-59
2020/12/21 05:42:51;;;;;;;2.53;1.10;;;5.10;99.90;;;;;;4372078;32;20063;-56
2020/12/21 05:45:16;;;;;;;1.80;0.98;;;5.00;99.90;;;;;;4384766;32;20082;-56
2020/12/21 05:47:48;;;;;;;0.98;0.80;;;5.00;99.90;;;;;;4385488;32;20122;-57
2020/12/21 05:50:19;;;;;;;0.77;0.77;;;5.10;99.90;;;;;;4371547;32;20066;-58
2020/12/21 05:52:51;;;;;;;0.95;0.88;;;5.10;99.90;;;;;;4371846;32;20062;-59
2020/12/21 05:55:16;;;;;;;2.70;0.73;;;5.00;99.90;;;;;;4385596;32;20061;-57
2020/12/21 05:57:42;;;;;;;1.75;1.08;;;5.00;99.90;;;;;;4385386;32;20091;-57
2020/12/21 06:00:10;;;;;;;0.75;0.75;;;4.90;99.90;;;;;;4383688;32;20079;-58
2020/12/21 06:02:36;;;;;;;0.77;0.77;;;5.00;99.90;;;;;;4375185;32;20136;-57
2020/12/21 06:05:07;;;;;;;1.92;0.73;;;4.80;99.90;;;;;;4398921;32;20078;-58
2020/12/21 06:07:34;;;;;;;0.82;0.65;;;4.80;99.90;;;;;;4398931;32;20071;-53
2020/12/21 06:10:03;;;;;;;0.55;0.55;;;4.70;99.90;;;;;;4371199;32;20106;-56
2020/12/21 06:12:33;;;;;;;0.82;0.82;;;4.70;99.90;;;;;;4382086;32;20078;-57
2020/12/21 06:15:05;;;;;;;0.73;0.73;;;4.70;99.90;;;;;;4383626;32;20065;-58
2020/12/21 06:17:34;;;;;;;1.50;1.27;;;4.70;99.90;;;;;;4387875;32;20063;-57
2020/12/21 06:20:09;;;;;;;2.37;1.33;;;4.80;99.90;;;;;;4399439;32;20062;-58
2020/12/21 06:22:35;;;;;;;0.57;0.57;;;4.80;99.90;;;;;;4397717;32;20528;-57
2020/12/21 06:25:03;;;;;;;0.70;0.68;;;4.80;99.90;;;;;;4396926;32;20083;-59
2020/12/21 06:27:38;;;;;;;2.42;1.35;;;4.70;99.90;;;;;;4398177;32;20117;-59
2020/12/21 06:30:05;;;;;;;3.17;1.00;;;4.70;99.90;;;;;;4385812;32;20067;-59
2020/12/21 06:32:31;;;;;;;0.50;0.50;;;4.80;99.90;;;;;;4398078;32;20119;-57
2020/12/21 06:34:58;;;;;;;0.65;0.60;;;4.80;99.90;;;;;;4385167;32;20066;-58
2020/12/21 06:37:24;;;;;;;0.73;0.70;;;4.80;99.90;;;;;;4399083;32;20054;-55
2020/12/21 06:39:59;;;;;;;0.88;0.82;;;4.70;99.90;;;;;;4398262;32;20079;-57
2020/12/21 06:42:25;;;;;;;0.80;0.80;;;4.70;99.90;;;;;;4397811;32;20070;-55
2020/12/21 06:44:54;;;;;;;1.00;0.65;;;4.60;99.90;;;;;;4397187;32;20081;-58
2020/12/21 06:47:20;;;;;;;0.70;0.70;;;4.50;99.90;;;;;;4398051;32;20582;-57
2020/12/21 06:49:45;;;;;;;0.73;0.73;;;4.50;99.90;;;;;;4397656;32;20105;-56
2020/12/21 06:52:11;;;;;;;3.95;1.87;;;4.40;99.90;;;;;;4399447;32;20159;-58
2020/12/21 06:54:36;;;;;;;0.50;0.50;;;4.40;99.90;;;;;;4398183;32;20428;-58
2020/12/21 06:57:02;;;;;;;2.87;1.40;;;4.40;99.90;;;;;;4392155;32;20079;-59
2020/12/21 06:59:27;;;;;;;0.98;0.65;;;4.40;99.90;;;;;;4398762;32;20070;-57
2020/12/21 07:01:55;;;;;;;0.68;0.68;;;4.40;99.90;;;;;;4400044;32;20409;-58
2020/12/21 07:04:25;;;;;;;1.05;0.98;;;4.40;99.90;;;;;;4395137;32;20128;-53
2020/12/21 07:06:52;;;;;;;1.60;1.08;;;4.30;99.90;;;;;;4384694;32;20496;-55
2020/12/21 07:09:27;;;;;;;5.40;1.17;;;4.20;99.90;;;;;;4395915;32;20511;-54
2020/12/21 07:11:55;;;;;;;1.87;1.12;;;4.30;99.90;;;;;;4384236;32;20066;-53
2020/12/21 07:14:22;;;;;;;1.83;1.37;;;4.30;99.90;;;;;;4383057;32;20082;-57
2020/12/21 07:16:48;;;;;;;1.50;1.05;;;4.20;99.90;;;;;;4383885;32;20070;-58
2020/12/21 07:19:14;;;;;;;1.02;1.02;;;4.10;99.90;;;;;;4384176;32;20126;-57
2020/12/21 07:21:40;;;;;;;1.95;1.10;;;4.10;99.90;;;;;;4395921;32;20061;-57
2020/12/21 07:24:09;;;;;;;0.50;0.50;;;4.10;99.90;;;;;;4398132;32;20116;-57
2020/12/21 07:26:35;;;;;;;1.37;1.25;;;4.10;99.90;;;;;;4397394;32;20116;-57
2020/12/21 07:29:01;;;;;;;0.52;0.52;;;4.20;99.90;;;;;;4384761;32;20059;-53
2020/12/21 07:31:27;;;;;;;0.70;0.70;;;4.20;99.90;;;;;;4398860;32;20166;-54
2020/12/21 07:33:56;;;;;;;1.65;1.10;;;4.30;99.90;;;;;;4399631;32;20065;-58
2020/12/21 07:36:25;;;;;;;1.50;1.08;;;4.20;99.90;;;;;;4374013;32;20126;-58
2020/12/21 07:38:50;;;;;;;0.95;0.95;;;4.20;99.90;;;;;;4400015;32;20066;-58
2020/12/21 07:41:18;;;;;;;2.85;0.85;;;4.30;99.90;;;;;;4397907;32;20522;-58
2020/12/21 07:43:49;;;;;;;0.68;0.68;;;4.30;99.90;;;;;;4398453;32;20062;-58
2020/12/21 07:46:23;;;;;;;0.77;0.77;;;4.20;99.90;;;;;;4397899;32;20083;-57
2020/12/21 07:48:50;;;;;;;3.70;1.05;;;4.20;99.90;;;;;;4398192;32;20116;-59
2020/12/21 07:51:19;;;;;;;3.35;1.42;;;4.20;99.90;;;;;;4398370;32;20059;-58
2020/12/21 07:53:46;;;;;;;0.60;0.60;;;4.20;99.90;;;;;;4397477;32;20078;-59
2020/12/21 07:56:16;;;;;;;1.75;1.08;;;4.10;99.90;;;;;;4398775;32;20070;-59
2020/12/21 07:58:41;;;;;;;2.03;1.17;;;4.20;99.90;;;;;;4401863;32;20066;-55
2020/12/21 08:01:07;;;;;;;1.00;1.00;;;4.30;99.90;;;;;;4401890;32;20075;-58
2020/12/21 08:03:38;;;;;;;0.52;0.52;;;4.30;99.90;;;;;;4400917;32;20100;-59
2020/12/21 08:06:08;;;;;;;0.57;0.57;;;4.20;99.90;;;;;;4393595;32;20063;-59
2020/12/21 08:08:35;;;;;;;0.88;0.88;;;4.30;99.90;;;;;;4385189;32;20508;-58
2020/12/21 08:11:01;;;;;;;0.35;0.35;;;4.30;99.90;;;;;;4393143;32;20062;-57
2020/12/21 08:13:27;;;;;;;0.70;0.70;;;4.30;99.90;;;;;;4399759;32;20074;-58
2020/12/21 08:16:03;;;;;;;5.07;1.40;;;4.20;99.90;;;;;;4401882;32;20071;-54
2020/12/21 08:18:28;;;;;;;0.77;0.77;;;4.20;99.90;;;;;;4401039;32;20436;-54
2020/12/21 08:20:54;;;;;;;0.60;0.60;;;4.30;99.90;;;;;;4400934;32;20065;-57
2020/12/21 08:23:22;;;;;;;0.88;0.88;;;4.30;99.90;;;;;;4401724;32;20054;-57
2020/12/21 08:25:47;;;;;;;4.07;1.08;;;4.40;99.90;;;;;;4400348;32;20449;-56
2020/12/21 08:28:25;;;;;;;1.10;0.70;;;4.30;99.90;;;;;;4400187;32;20079;-55
2020/12/21 08:30:50;;;;;;;0.82;0.80;;;4.40;99.90;;;;;;4401195;32;20062;-55
2020/12/21 08:33:16;;;;;;;1.15;1.05;;;4.50;99.90;;;;;;4400890;32;20073;-57
2020/12/21 08:35:41;;;;;;;2.50;1.20;;;4.50;99.90;;;;;;4401498;32;20612;-58
2020/12/21 08:38:11;;;;;;;1.23;0.82;;;4.50;99.90;;;;;;4401184;32;20070;-58
2020/12/21 08:40:36;;;;;;;1.58;0.90;;;4.50;99.90;;;;;;4385262;32;77002;-56
2020/12/21 08:43:03;;;;;;;0.93;0.93;;;4.70;99.90;;;;;;4400132;32;20148;-58
2020/12/21 08:45:28;;;;;;;0.70;0.70;;;4.80;99.90;;;;;;4401012;32;20077;-59
2020/12/21 08:47:54;;;;;;;13.23;1.70;;;4.90;99.90;;;;;;4400443;32;20133;-59
2020/12/21 08:50:19;;;;;;;0.55;0.55;;;4.80;99.90;;;;;;4401028;32;20480;-56
2020/12/21 08:52:48;;;;;;;0.70;0.70;;;4.90;99.90;;;;;;4401203;32;20074;-59
2020/12/21 08:55:13;;;;;;;2.33;1.08;;;5.00;99.90;;;;;;4399357;32;20058;-58
2020/12/21 08:57:39;;;;;;;0.75;0.75;;;5.10;99.90;;;;;;4390151;32;20086;-57
2020/12/21 09:00:04;;;;;;;0.50;0.50;;;5.10;99.90;;;;;;4385969;32;20077;-59
2020/12/21 09:02:30;;;;;;;0.73;0.73;;;5.30;99.90;;;;;;4386146;32;20074;-58
2020/12/21 09:04:55;;;;;;;4.47;1.75;;;5.30;99.90;;;;;;4387553;32;20087;-58
2020/12/21 09:07:21;;;;;;;0.62;0.62;;;5.30;99.90;;;;;;4399394;32;20078;-54
2020/12/21 09:09:46;;;;;;;2.90;0.98;;;5.20;99.90;;;;;;4401186;32;20114;-58
2020/12/21 09:12:12;;;;;;;1.52;0.95;;;5.30;99.90;;;;;;4399988;32;20073;-57
2020/12/21 09:14:37;;;;;;;3.25;0.90;;;5.30;99.90;;;;;;4399750;32;20078;-58
2020/12/21 09:17:03;;;;;;;1.40;1.00;;;5.30;99.90;;;;;;4398311;32;20078;-57
2020/12/21 09:19:28;;;;;;;0.50;0.50;;;5.20;99.90;;;;;;4385648;32;20394;-58
2020/12/21 09:21:54;;;;;;;2.95;1.40;;;5.20;99.90;;;;;;4385902;32;20516;-59
2020/12/21 09:24:19;;;;;;;3.25;1.42;;;5.40;99.90;;;;;;4385684;32;20079;-57
2020/12/21 09:26:46;;;;;;;4.32;0.93;;;5.50;99.90;;;;;;4385903;32;20063;-59
2020/12/21 09:29:12;;;;;;;3.53;0.98;;;5.50;99.90;;;;;;4385330;32;20114;-57
2020/12/21 09:31:37;;;;;;;0.60;0.60;;;5.60;99.90;;;;;;4385248;32;20062;-57
2020/12/21 09:34:03;;;;;;;4.95;0.73;;;5.70;99.90;;;;;;4385983;32;20059;-59
2020/12/21 09:36:29;;;;;;;0.65;0.57;;;5.70;99.90;;;;;;4385703;32;20063;-55
2020/12/21 09:38:55;;;;;;;0.75;0.75;;;5.80;99.90;;;;;;4386796;32;20530;-58
2020/12/21 09:41:21;;;;;;;9.85;3.12;;;5.90;99.90;;;;;;4385203;32;20062;-58
2020/12/21 09:43:48;;;;;;;0.77;0.77;;;6.00;99.90;;;;;;4385399;32;20078;-57
2020/12/21 09:46:18;;;;;;;0.70;0.60;;;6.00;99.90;;;;;;4384296;32;20130;-59
2020/12/21 09:48:44;;;;;;;0.40;0.40;;;5.90;99.90;;;;;;4384861;32;20551;-58
2020/12/21 09:51:11;;;;;;;1.52;0.82;;;5.80;99.90;;;;;;4386539;32;20079;-56
2020/12/21 09:53:38;;;;;;;0.43;0.43;;;6.00;99.90;;;;;;4383795;32;20114;-58
2020/12/21 09:56:03;;;;;;;1.08;0.90;;;6.00;99.90;;;;;;4384207;32;20081;-58
2020/12/21 09:58:29;;;;;;;5.70;0.80;;;6.10;99.90;;;;;;4399304;32;20524;-59
2020/12/21 10:00:54;;;;;;;3.15;0.77;;;6.10;99.90;;;;;;4400050;32;20063;-57
2020/12/21 10:03:20;;;;;;;0.73;0.73;;;6.10;99.90;;;;;;4400714;32;20121;-59
2020/12/21 10:05:45;;;;;;;0.50;0.50;;;6.10;99.90;;;;;;4394686;32;20067;-58
2020/12/21 10:08:11;;;;;;;0.60;0.60;;;6.10;99.90;;;;;;4385280;32;20079;-59
2020/12/21 10:10:36;;;;;;;1.98;0.73;;;6.00;99.90;;;;;;4389957;32;20128;-59
2020/12/21 10:13:02;;;;;;;1.37;1.00;;;6.10;99.90;;;;;;4400445;32;20120;-57
2020/12/21 10:15:27;;;;;;;1.85;0.85;;;6.20;99.90;;;;;;4399844;32;20476;-58
2020/12/21 10:17:53;;;;;;;0.30;0.30;;;6.30;99.90;;;;;;4400137;32;20394;-55
2020/12/21 10:20:18;;;;;;;1.15;1.05;;;6.20;99.90;;;;;;4399681;32;20503;-58
2020/12/21 10:22:44;;;;;;;0.35;0.35;;;6.10;99.90;;;;;;4401479;32;20070;-57
2020/12/21 10:25:09;;;;;;;25.45;0.70;;;6.10;99.90;;;;;;4400636;32;20063;-58
2020/12/21 10:27:35;;;;;;;2.85;0.82;;;6.10;99.90;;;;;;4399282;32;20062;-56
2020/12/21 10:30:00;;;;;;;2.40;1.08;;;6.10;99.90;;;;;;4399582;32;20062;-57
2020/12/21 10:32:26;;;;;;;0.95;0.70;;;6.30;99.90;;;;;;4399585;32;20061;-59
2020/12/21 10:34:51;;;;;;;0.65;0.50;;;6.50;99.90;;;;;;4399598;32;20066;-58
2020/12/21 10:37:17;;;;;;;0.70;0.70;;;6.50;99.90;;;;;;4399506;32;20117;-57
2020/12/21 10:39:42;;;;;;;1.00;0.80;;;6.60;99.90;;;;;;4401367;32;20111;-57
2020/12/21 10:42:08;;;;;;;0.70;0.70;;;6.60;99.90;;;;;;4399900;32;20057;-59
2020/12/21 10:44:33;;;;;;;2.17;0.65;;;6.60;99.90;;;;;;4400486;32;20089;-59
2020/12/21 10:46:59;;;;;;;0.35;0.35;;;6.60;99.90;;;;;;4400089;32;20063;-57
2020/12/21 10:49:25;;;;;;;0.70;0.70;;;6.60;99.90;;;;;;4385014;32;20077;-54
2020/12/21 10:51:51;;;;;;;0.75;0.75;;;6.50;99.90;;;;;;4399198;32;20070;-54
2020/12/21 10:54:17;;;;;;;2.58;1.30;;;6.50;99.90;;;;;;4399964;32;20531;-58
2020/12/21 10:56:42;;;;;;;1.27;1.10;;;6.50;99.90;;;;;;4393879;32;20062;-58
2020/12/21 10:59:08;;;;;;;0.62;0.62;;;6.60;99.90;;;;;;4385328;32;20126;-58
2020/12/21 11:01:33;;;;;;;3.17;1.27;;;6.70;99.90;;;;;;4384985;32;20070;-59
2020/12/21 11:03:59;;;;;;;0.50;0.50;;;6.80;99.90;;;;;;4384924;32;20082;-59
2020/12/21 11:06:25;;;;;;;0.77;0.77;;;6.90;99.90;;;;;;4395365;32;20503;-59
2020/12/21 11:08:52;;;;;;;0.60;0.60;;;7.00;99.90;;;;;;4399790;32;20062;-58
2020/12/21 11:11:26;;;;;;;1.90;0.80;;;7.10;99.90;;;;;;4397890;32;20136;-58
2020/12/21 11:13:52;;;;;;;0.37;0.37;;;7.10;99.90;;;;;;4398944;32;20094;-58
2020/12/21 11:16:18;;;;;;;2.50;1.35;;;6.90;99.90;;;;;;4398460;32;20074;-58
2020/12/21 11:18:43;;;;;;;1.23;1.12;;;7.10;99.90;;;;;;4387700;32;20059;-58
2020/12/21 11:21:09;;;;;;;0.62;0.62;;;7.40;99.90;;;;;;4384539;32;20058;-60
2020/12/21 11:23:34;;;;;;;0.30;0.30;;;7.50;99.90;;;;;;4384295;32;20569;-59
2020/12/21 11:26:00;;;;;;;0.43;0.43;;;7.50;99.90;;;;;;4383142;32;20122;-60
2020/12/21 11:28:25;;;;;;;0.73;0.73;;;7.70;99.90;;;;;;4384357;32;20463;-59
2020/12/21 11:30:51;;;;;;;0.80;0.80;;;7.50;99.90;;;;;;4385091;32;20277;-60
2020/12/21 11:33:16;;;;;;;1.35;0.62;;;7.80;99.90;;;;;;4386909;32;20094;-59
2020/12/21 11:35:42;;;;;;;0.60;0.60;;;7.80;99.90;;;;;;4385853;32;20414;-57
2020/12/21 11:38:07;;;;;;;0.57;0.55;;;7.80;99.90;;;;;;4386937;32;20066;-58
2020/12/21 11:40:34;;;;;;;0.60;0.60;;;7.80;99.90;;;;;;4385935;32;20070;-60
2020/12/21 11:42:59;;;;;;;0.95;0.90;;;7.90;99.90;;;;;;4387180;32;20070;-59
2020/12/21 11:45:25;;;;;;;0.80;0.70;;;7.90;99.90;;;;;;4386274;32;20059;-58
2020/12/21 11:47:50;;;;;;;0.88;0.88;;;7.90;99.90;;;;;;4385876;32;20105;-57
2020/12/21 11:50:16;;;;;;;0.40;0.40;;;8.00;99.90;;;;;;4386935;32;20078;-57
2020/12/21 11:52:42;;;;;;;0.62;0.62;;;8.00;99.90;;;;;;4385774;32;20082;-58
2020/12/21 11:55:08;;;;;;;3.10;1.35;;;7.90;99.90;;;;;;4386690;32;20079;-55
2020/12/21 11:57:33;;;;;;;0.57;0.57;;;8.00;99.90;;;;;;4395522;32;20117;-61
2020/12/21 11:59:59;;;;;;;2.53;1.35;;;8.10;99.90;;;;;;4405700;32;20058;-58
2020/12/21 12:02:25;;;;;;;0.70;0.70;;;8.00;99.90;;;;;;4401946;32;20066;-59
2020/12/21 12:04:50;;;;;;;1.75;0.68;;;8.10;99.90;;;;;;4401275;32;20507;-57
2020/12/21 12:07:16;;;;;;;1.35;0.82;;;8.10;99.90;;;;;;4386887;32;20413;-57
2020/12/21 12:09:41;;;;;;;1.45;0.82;;;8.10;99.90;;;;;;4385564;32;20082;-59
2020/12/21 12:12:07;;;;;;;0.60;0.60;;;8.30;99.90;;;;;;4399854;32;20421;-58
2020/12/21 12:14:33;;;;;;;1.45;0.82;;;8.20;99.90;;;;;;4401200;32;20066;-58
2020/12/21 12:16:58;;;;;;;2.72;1.37;;;8.20;99.90;;;;;;4400018;32;20062;-59
2020/12/21 12:19:25;;;;;;;0.70;0.70;;;8.30;99.90;;;;;;4387629;32;20113;-60
2020/12/21 12:21:51;;;;;;;0.50;0.50;;;8.40;99.90;;;;;;4385957;32;20496;-56
2020/12/21 12:24:17;;;;;;;0.50;0.45;;;8.40;99.90;;;;;;4384972;32;20066;-57
2020/12/21 12:26:43;;;;;;;1.50;0.50;;;8.40;99.90;;;;;;4385988;32;20075;-58
2020/12/21 12:29:09;;;;;;;1.98;1.30;;;8.30;99.90;;;;;;4386314;32;20067;-58
2020/12/21 12:31:35;;;;;;;0.50;0.50;;;8.10;99.90;;;;;;4386451;32;20062;-59
2020/12/21 12:34:00;;;;;;;0.50;0.50;;;8.00;99.90;;;;;;4386616;32;20062;-56
2020/12/21 12:36:26;;;;;;;0.32;0.32;;;8.20;99.90;;;;;;4386311;32;20075;-56
2020/12/21 12:38:53;;;;;;;3.60;1.02;;;8.60;99.90;;;;;;4386491;32;20061;-58
2020/12/21 12:41:18;;;;;;;0.50;0.50;;;8.90;99.90;;;;;;4385419;32;20062;-54
2020/12/21 12:43:44;;;;;;;1.45;0.65;;;9.20;99.90;;;;;;4384867;32;20125;-56
2020/12/21 12:46:10;;;;;;;1.75;1.20;;;9.40;99.90;;;;;;4385346;32;20087;-55
2020/12/21 12:48:36;;;;;;;2.62;1.10;;;9.30;99.90;;;;;;4385226;32;20119;-59
2020/12/21 12:51:02;;;;;;;5.78;0.55;;;9.30;99.90;;;;;;4383724;32;20186;-59
2020/12/21 12:53:27;;;;;;;0.40;0.40;;;9.40;99.90;;;;;;4385882;32;20613;-59